Time;durP1;ratioP1;P1;durP2;ratioP2;P2;SDS_P1;SDS_P2;PMS_P1;PMS_P2;Temp;Humidity;BMP_temperature;BMP_pressure;BME280_temperature;BME280_humidity;BME280_pressure;Samples;Min_cycle;Max_cycle;Signal;HPM_P1;HPM_P2
2023/06/18 00:04:28;;;;;;;18.83;15.68;;;;;;;18.46;59.44;100185.22;10187703;29;20459;-76
2023/06/18 00:09:31;;;;;;;17.63;15.05;;;;;;;18.65;59.05;100175.69;10191227;29;20048;-76
2023/06/18 00:14:35;;;;;;;17.33;14.35;;;;;;;18.52;59.28;100179.06;10192563;29;20048;-76
2023/06/18 00:19:38;;;;;;;17.13;15.05;;;;;;;18.57;59.05;100174.75;10195421;29;20090;-76
2023/06/18 00:24:41;;;;;;;19.67;15.75;;;;;;;18.19;60.10;100189.31;10192854;29;20418;-76
2023/06/18 00:29:46;;;;;;;18.02;15.23;;;;;;;17.64;62.12;100191.06;10203252;29;20503;-75
2023/06/18 00:34:53;;;;;;;18.08;15.80;;;;;;;17.17;63.65;100194.56;10197028;29;20058;-76
2023/06/18 00:39:56;;;;;;;19.75;14.95;;;;;;;17.51;62.74;100185.31;10179077;29;20167;-76
2023/06/18 00:45:00;;;;;;;19.00;16.35;;;;;;;17.08;64.04;100182.81;10181997;29;20451;-76
2023/06/18 00:50:05;;;;;;;19.00;15.60;;;;;;;17.44;63.07;100174.28;10193634;29;20135;-76
2023/06/18 00:55:09;;;;;;;18.27;15.57;;;;;;;17.77;62.29;100180.47;10193279;29;20487;-76
2023/06/18 01:00:13;;;;;;;19.38;15.80;;;;;;;17.84;61.26;100181.44;10194298;29;20046;-76
2023/06/18 01:05:17;;;;;;;20.98;15.60;;;;;;;17.68;61.62;100186.94;10188043;29;20044;-75
2023/06/18 01:10:22;;;;;;;17.23;14.25;;;;;;;17.69;61.47;100185.94;10188310;29;20041;-74
2023/06/18 01:15:27;;;;;;;19.30;14.68;;;;;;;17.71;61.16;100175.72;10183160;29;20074;-75
2023/06/18 01:20:31;;;;;;;16.23;14.43;;;;;;;17.81;61.05;100175.53;10193277;29;20044;-76
2023/06/18 01:25:37;;;;;;;21.30;15.20;;;;;;;17.77;61.03;100185.91;10189959;29;20056;-76
2023/06/18 01:30:41;;;;;;;16.45;14.18;;;;;;;17.72;60.95;100179.28;10205467;29;20048;-76
2023/06/18 01:35:44;;;;;;;17.80;14.55;;;;;;;17.59;60.87;100171.72;10193633;29;20058;-76
2023/06/18 01:40:53;;;;;;;18.60;15.50;;;;;;;17.57;60.92;100174.59;10197548;29;20544;-75
2023/06/18 01:46:02;;;;;;;20.50;15.60;;;;;;;17.53;61.27;100172.41;10189419;29;20700;-76
2023/06/18 01:51:06;;;;;;;23.25;17.05;;;;;;;17.37;61.29;100176.88;10189891;29;20048;-76
2023/06/18 01:56:09;;;;;;;20.58;17.05;;;;;;;17.25;61.87;100189.09;10182947;29;20047;-76
2023/06/18 02:01:14;;;;;;;21.75;16.75;;;;;;;17.18;61.91;100190.81;10189582;29;20525;-76
2023/06/18 02:06:17;;;;;;;21.80;17.67;;;;;;;17.20;62.31;100194.22;10189942;29;20056;-76
2023/06/18 02:11:20;;;;;;;19.90;16.92;;;;;;;17.16;62.39;100190.13;10195687;29;20055;-76
2023/06/18 02:16:24;;;;;;;22.70;16.80;;;;;;;17.07;62.62;100186.56;10190857;29;20063;-77
2023/06/18 02:21:28;;;;;;;21.90;16.88;;;;;;;17.17;62.72;100191.84;10185130;29;20139;-77
2023/06/18 02:26:31;;;;;;;21.73;18.27;;;;;;;17.12;63.16;100197.75;10183253;29;20050;-77
2023/06/18 02:31:35;;;;;;;22.85;18.85;;;;;;;17.06;63.12;100193.03;10185220;29;20261;-77
2023/06/18 02:36:38;;;;;;;22.17;17.35;;;;;;;17.03;63.64;100190.63;10188611;29;20452;-77
2023/06/18 02:41:45;;;;;;;20.88;18.23;;;;;;;16.94;63.19;100195.22;10189467;29;20047;-77
2023/06/18 02:46:49;;;;;;;21.77;17.20;;;;;;;16.93;63.18;100189.97;10192499;29;20420;-76
2023/06/18 02:51:53;;;;;;;25.42;18.52;;;;;;;16.80;63.34;100183.19;10197001;29;20068;-76
2023/06/18 02:56:56;;;;;;;21.98;18.35;;;;;;;16.70;63.62;100179.81;10179072;29;20103;-77
2023/06/18 03:02:00;;;;;;;23.50;19.02;;;;;;;16.52;63.62;100181.81;10185434;29;20051;-77
2023/06/18 03:07:04;;;;;;;11.38;10.18;;;;;;;16.31;64.73;100179.59;10196061;29;20047;-77
2023/06/18 03:12:07;;;;;;;18.52;15.95;;;;;;;16.41;64.79;100182.16;10200446;29;20109;-76
2023/06/18 03:17:12;;;;;;;22.65;18.42;;;;;;;16.33;64.09;100185.69;10190293;29;20051;-77
2023/06/18 03:22:15;;;;;;;23.95;17.67;;;;;;;16.36;64.68;100180.78;10187576;29;20174;-77
2023/06/18 03:27:19;;;;;;;20.60;15.93;;;;;;;16.52;64.39;100184.53;10189712;29;20494;-75
2023/06/18 03:32:24;;;;;;;19.15;16.55;;;;;;;16.52;64.18;100177.25;10195632;29;20067;-76
2023/06/18 03:37:28;;;;;;;18.88;16.55;;;;;;;16.51;64.13;100180.13;10183438;29;20084;-77
2023/06/18 03:42:31;;;;;;;20.38;15.85;;;;;;;16.66;63.77;100177.59;10187137;29;20039;-77
2023/06/18 03:47:35;;;;;;;24.70;16.48;;;;;;;16.75;63.58;100182.00;10194874;29;20047;-76
2023/06/18 03:52:38;;;;;;;19.58;17.50;;;;;;;16.55;64.06;100166.06;10211076;29;20558;-77
2023/06/18 03:57:43;;;;;;;20.73;16.50;;;;;;;16.64;63.64;100185.06;10193752;29;20044;-77
2023/06/18 04:02:47;;;;;;;17.25;15.43;;;;;;;16.76;63.35;100179.13;10192949;29;20058;-77
2023/06/18 04:07:55;;;;;;;22.85;16.90;;;;;;;16.57;63.41;100185.72;10177091;29;20111;-77
2023/06/18 04:12:58;;;;;;;18.40;15.63;;;;;;;16.69;63.56;100182.69;10186761;29;20487;-77
2023/06/18 04:18:03;;;;;;;21.08;16.85;;;;;;;16.75;63.29;100184.72;10196420;29;20052;-77
2023/06/18 04:23:06;;;;;;;18.88;15.70;;;;;;;16.83;63.12;100175.72;10196738;29;20036;-77
2023/06/18 04:28:09;;;;;;;19.23;16.65;;;;;;;16.96;62.67;100182.34;10196674;29;20044;-76
2023/06/18 04:33:14;;;;;;;18.73;16.67;;;;;;;16.98;62.55;100182.19;10195860;29;20047;-76
2023/06/18 04:38:18;;;;;;;27.05;17.27;;;;;;;17.00;62.25;100183.69;10190452;29;20062;-77
2023/06/18 04:43:22;;;;;;;19.08;16.40;;;;;;;16.97;62.83;100189.44;10183072;29;20040;-74
2023/06/18 04:48:27;;;;;;;16.83;14.82;;;;;;;17.06;62.37;100190.31;10194756;29;20059;-77
2023/06/18 04:53:30;;;;;;;18.45;16.40;;;;;;;16.89;63.19;100199.47;10188442;29;20499;-76
2023/06/18 04:58:36;;;;;;;22.88;15.50;;;;;;;16.77;63.58;100199.81;10198975;29;20074;-77
2023/06/18 05:03:42;;;;;;;24.23;19.10;;;;;;;17.06;62.61;100208.44;10195624;29;20075;-77
2023/06/18 05:08:46;;;;;;;24.30;17.25;;;;;;;17.17;62.60;100208.97;10192699;29;20059;-77
2023/06/18 05:13:50;;;;;;;23.85;18.42;;;;;;;17.38;62.45;100208.41;10185305;29;20187;-77
2023/06/18 05:18:54;;;;;;;20.52;17.55;;;;;;;17.56;62.19;100201.94;10185319;29;20134;-76
2023/06/18 05:23:57;;;;;;;24.45;17.13;;;;;;;17.57;61.55;100200.91;10178978;29;20056;-76
2023/06/18 05:29:00;;;;;;;20.73;17.35;;;;;;;17.68;61.30;100205.97;10192315;29;20075;-75
2023/06/18 05:34:05;;;;;;;21.33;18.08;;;;;;;17.69;61.79;100204.97;10192699;29;20051;-74
2023/06/18 05:39:08;;;;;;;21.15;18.08;;;;;;;17.88;61.56;100198.22;10189734;29;20044;-77
2023/06/18 05:44:11;;;;;;;21.42;18.45;;;;;;;18.05;61.81;100204.50;10185451;29;20119;-75
2023/06/18 05:49:16;;;;;;;23.48;17.83;;;;;;;18.19;61.51;100217.31;10181665;29;20560;-75
2023/06/18 05:54:21;;;;;;;22.95;18.48;;;;;;;18.42;60.70;100217.34;10184739;29;20052;-76
2023/06/18 05:59:24;;;;;;;23.13;18.15;;;;;;;18.61;60.59;100220.63;10185501;29;20036;-75
2023/06/18 06:04:35;;;;;;;21.33;17.27;;;;;;;18.62;59.86;100227.75;10193771;29;20533;-74
2023/06/18 06:09:40;;;;;;;23.83;18.17;;;;;;;18.75;59.97;100222.56;10192892;29;20040;-75
2023/06/18 06:14:43;;;;;;;21.23;16.75;;;;;;;18.99;60.31;100219.66;10202536;29;20059;-76
2023/06/18 06:19:48;;;;;;;22.92;17.27;;;;;;;19.26;59.33;100228.28;10197697;29;20063;-75
2023/06/18 06:24:51;;;;;;;23.77;17.38;;;;;;;19.51;58.99;100233.50;10180156;29;20044;-76
2023/06/18 06:29:54;;;;;;;24.52;19.55;;;;;;;19.82;58.80;100236.06;10169973;29;20040;-74
2023/06/18 06:34:58;;;;;;;20.45;16.70;;;;;;;20.03;57.79;100240.75;10193188;29;20361;-75
2023/06/18 06:40:01;;;;;;;21.27;16.65;;;;;;;20.11;57.56;100238.75;10191304;29;20179;-74
2023/06/18 06:45:07;;;;;;;18.33;15.68;;;;;;;20.34;56.37;100237.78;10188808;29;20135;-74
2023/06/18 06:50:25;;;;;;;20.88;15.45;;;;;;;20.77;54.79;100246.88;10193290;29;20044;-74
2023/06/18 06:55:37;;;;;;;20.27;16.55;;;;;;;21.00;54.99;100240.38;10180554;29;20060;-71
2023/06/18 07:00:40;;;;;;;18.90;15.60;;;;;;;21.43;53.95;100249.38;10180118;29;20523;-72
2023/06/18 07:05:45;;;;;;;22.95;16.67;;;;;;;21.76;52.33;100251.50;10187549;29;20436;-72
2023/06/18 07:10:48;;;;;;;21.23;16.35;;;;;;;22.05;51.42;100244.06;10182774;29;20055;-72
2023/06/18 07:15:51;;;;;;;20.58;15.90;;;;;;;22.32;50.89;100251.38;10187416;29;20040;-72
2023/06/18 07:20:55;;;;;;;20.05;15.23;;;;;;;23.14;48.82;100237.66;10187200;29;20052;-72
2023/06/18 07:25:58;;;;;;;15.45;13.93;;;;;;;24.85;46.40;100234.63;10189136;29;20084;-72
2023/06/18 07:31:01;;;;;;;14.48;12.95;;;;;;;26.83;42.60;100220.84;10192813;29;20041;-72
2023/06/18 07:36:06;;;;;;;16.38;13.52;;;;;;;28.24;40.41;100224.41;10185605;29;20043;-72
2023/06/18 07:41:09;;;;;;;15.77;13.07;;;;;;;28.99;39.20;100214.25;10182763;29;20047;-72
2023/06/18 07:46:12;;;;;;;16.65;13.70;;;;;;;29.30;37.48;100212.81;10195712;29;20065;-72
2023/06/18 07:51:16;;;;;;;16.33;12.75;;;;;;;28.75;37.75;100215.47;10199429;29;20048;-72
2023/06/18 07:56:20;;;;;;;13.10;11.80;;;;;;;28.72;38.20;100208.53;10202420;29;20048;-72
2023/06/18 08:01:22;;;;;;;14.30;12.90;;;;;;;27.87;39.20;100214.78;10196071;29;20039;-73
2023/06/18 08:06:27;;;;;;;13.40;10.80;;;;;;;27.32;40.33;100216.00;10186379;29;20067;-72
2023/06/18 08:11:29;;;;;;;14.45;11.60;;;;;;;27.27;40.63;100218.66;10182132;29;20044;-72
2023/06/18 08:16:32;;;;;;;11.10;9.85;;;;;;;27.14;39.19;100206.75;10191072;29;20937;-72
2023/06/18 08:21:37;;;;;;;12.90;11.60;;;;;;;27.07;40.55;100197.78;10199975;29;20074;-72
2023/06/18 08:26:40;;;;;;;11.02;9.80;;;;;;;27.22;40.25;100201.97;10202657;29;20055;-74
2023/06/18 08:31:44;;;;;;;10.90;9.88;;;;;;;27.46;39.03;100194.56;10200932;29;20044;-73
2023/06/18 08:36:49;;;;;;;11.43;9.65;;;;;;;27.52;39.09;100199.13;10196996;29;20036;-73
2023/06/18 08:41:52;;;;;;;10.30;8.98;;;;;;;27.64;37.19;100202.69;10199743;29;20040;-73
2023/06/18 08:46:59;;;;;;;12.23;8.57;;;;;;;27.63;38.46;100195.50;10187188;29;20104;-74
2023/06/18 08:52:09;;;;;;;10.77;8.80;;;;;;;27.92;38.08;100196.44;10195173;29;20048;-73
2023/06/18 08:57:17;;;;;;;10.02;8.40;;;;;;;28.15;36.64;100197.47;10192708;29;20051;-72
2023/06/18 09:02:21;;;;;;;9.75;8.85;;;;;;;28.43;36.35;100196.63;10201924;29;20051;-73
2023/06/18 09:07:26;;;;;;;9.55;8.60;;;;;;;27.42;36.47;100188.69;10199065;29;20055;-75
2023/06/18 09:12:28;;;;;;;9.52;7.32;;;;;;;28.00;36.33;100198.84;10190133;29;20372;-76
2023/06/18 09:17:32;;;;;;;8.10;7.30;;;;;;;28.38;35.55;100185.47;10195306;29;20048;-77
2023/06/18 09:22:46;;;;;;;7.43;6.72;;;;;;;28.71;33.07;100188.31;10188919;29;20052;-77
2023/06/18 09:27:49;;;;;;;7.55;6.68;;;;;;;29.20;32.86;100181.41;10158727;29;20052;-76
2023/06/18 09:32:53;;;;;;;6.95;6.25;;;;;;;29.61;32.25;100182.88;10155210;29;20543;-78
2023/06/18 09:38:08;;;;;;;7.05;6.43;;;;;;;29.83;30.80;100180.09;10163753;28;20073;-77
2023/06/18 09:43:11;;;;;;;7.30;6.70;;;;;;;29.80;30.38;100175.94;10170830;29;20060;-78
2023/06/18 09:48:14;;;;;;;6.88;6.28;;;;;;;29.27;31.80;100171.03;10164018;29;20071;-77
2023/06/18 09:53:20;;;;;;;7.45;6.68;;;;;;;28.63;32.87;100176.84;10170827;28;20053;-78
2023/06/18 09:58:40;;;;;;;7.32;6.63;;;;;;;29.43;31.86;100174.81;10150529;29;20059;-77
2023/06/18 10:03:44;;;;;;;8.75;7.40;;;;;;;30.32;31.79;100174.63;10159497;29;20051;-77
2023/06/18 10:08:50;;;;;;;9.40;7.32;;;;;;;29.85;31.07;100169.63;10158528;29;20905;-77
2023/06/18 10:13:56;;;;;;;7.97;6.47;;;;;;;30.06;30.01;100167.94;10164853;29;20048;-77
2023/06/18 10:19:03;;;;;;;6.43;5.82;;;;;;;30.04;30.68;100170.97;10157730;29;20055;-78
2023/06/18 10:24:16;;;;;;;7.53;5.80;;;;;;;30.93;30.66;100163.28;10155411;29;20051;-76
2023/06/18 10:29:20;;;;;;;8.10;6.03;;;;;;;31.94;30.27;100165.03;10149351;28;20056;-77
2023/06/18 10:34:25;;;;;;;7.15;6.45;;;;;;;31.88;28.14;100156.97;10153410;29;20116;-76
2023/06/18 10:39:30;;;;;;;8.25;6.35;;;;;;;32.23;28.40;100148.78;10157799;29;20052;-77
2023/06/18 10:44:34;;;;;;;6.78;6.07;;;;;;;32.22;27.69;100146.25;10160294;29;20170;-77
2023/06/18 10:49:37;;;;;;;6.50;5.88;;;;;;;32.31;28.13;100143.78;10166064;29;20079;-77
2023/06/18 10:54:44;;;;;;;6.72;6.13;;;;;;;32.25;27.44;100128.22;10165366;29;20052;-76
2023/06/18 10:59:49;;;;;;;6.43;5.80;;;;;;;32.38;28.39;100136.00;10152176;29;20056;-75
2023/06/18 11:04:53;;;;;;;6.68;5.88;;;;;;;32.99;26.55;100133.25;10143683;29;20972;-75
2023/06/18 11:10:00;;;;;;;7.00;6.40;;;;;;;31.47;26.86;100126.22;10149237;29;20044;-78
2023/06/18 11:15:14;;;;;;;6.32;5.68;;;;;;;31.63;27.38;100122.41;10154077;29;20052;-77
2023/06/18 11:20:19;;;;;;;6.28;5.78;;;;;;;31.53;26.37;100122.38;10158860;29;20597;-76
2023/06/18 11:25:25;;;;;;;6.93;5.57;;;;;;;31.07;27.01;100122.91;10155702;29;20147;-75
2023/06/18 11:30:31;;;;;;;6.95;5.45;;;;;;;32.25;24.50;100120.69;10159930;29;20048;-76
2023/06/18 11:35:34;;;;;;;6.43;5.82;;;;;;;32.89;24.48;100117.44;10157883;29;20070;-76
2023/06/18 11:40:48;;;;;;;6.40;5.85;;;;;;;34.30;23.69;100111.94;10150565;29;20649;-76
2023/06/18 11:45:52;;;;;;;6.72;6.13;;;;;;;34.83;23.31;100100.91;10165535;28;20199;-76
2023/06/18 11:50:56;;;;;;;6.43;5.93;;;;;;;34.22;23.95;100093.84;10162741;29;20060;-76
2023/06/18 11:56:00;;;;;;;8.15;5.63;;;;;;;34.42;23.68;100085.34;10162233;29;20139;-76
2023/06/18 12:01:03;;;;;;;6.30;5.70;;;;;;;33.69;24.08;100090.81;10156943;29;20787;-76
2023/06/18 12:06:13;;;;;;;7.00;6.40;;;;;;;33.48;25.21;100085.28;10156071;29;20051;-75
2023/06/18 12:11:27;;;;;;;6.38;5.78;;;;;;;34.08;24.51;100088.06;10165045;29;20056;-78
2023/06/18 12:16:31;;;;;;;7.18;6.50;;;;;;;32.32;23.81;100084.31;10161715;29;20093;-76
2023/06/18 12:21:34;;;;;;;7.18;6.40;;;;;;;31.52;24.92;100088.22;10160075;29;20058;-76
2023/06/18 12:26:39;;;;;;;7.22;6.38;;;;;;;31.55;25.49;100076.59;10164421;29;20044;-78
2023/06/18 12:31:43;;;;;;;6.40;5.80;;;;;;;31.89;25.68;100073.38;10161581;29;20071;-79
2023/06/18 12:36:47;;;;;;;6.50;5.80;;;;;;;33.21;24.54;100070.91;10165865;28;20048;-78
2023/06/18 12:41:51;;;;;;;8.45;7.10;;;;;;;32.89;24.06;100064.59;10160960;29;20056;-78
2023/06/18 12:46:56;;;;;;;8.57;6.65;;;;;;;32.61;24.23;100057.66;10161042;28;20059;-78
2023/06/18 12:51:59;;;;;;;6.43;5.90;;;;;;;33.13;23.86;100058.38;10160230;29;20134;-77
2023/06/18 12:57:04;;;;;;;6.53;5.90;;;;;;;34.34;24.36;100041.38;10162594;29;20071;-78
2023/06/18 13:02:07;;;;;;;7.07;6.47;;;;;;;34.20;22.61;100032.84;10164042;29;21242;-78
2023/06/18 13:07:09;;;;;;;7.75;6.60;;;;;;;34.28;23.32;100034.16;10167042;29;20408;-79
2023/06/18 13:12:15;;;;;;;7.25;6.65;;;;;;;33.91;22.93;100032.75;10164182;29;20454;-77
2023/06/18 13:17:17;;;;;;;9.18;6.80;;;;;;;33.66;22.92;100024.56;10158485;29;20055;-75
2023/06/18 13:22:21;;;;;;;7.65;6.93;;;;;;;33.99;23.14;100021.00;10164077;29;20074;-78
2023/06/18 13:27:25;;;;;;;6.70;6.10;;;;;;;34.16;22.58;100017.81;10151964;29;20054;-77
2023/06/18 13:32:29;;;;;;;7.00;6.40;;;;;;;34.79;23.66;100010.59;10165423;29;21794;-78
2023/06/18 13:37:32;;;;;;;7.03;6.18;;;;;;;35.44;22.40;100008.16;10166646;28;20075;-77
2023/06/18 13:42:37;;;;;;;7.65;6.47;;;;;;;35.35;23.09;100003.50;10168857;29;20051;-77
2023/06/18 13:47:39;;;;;;;8.38;7.10;;;;;;;34.52;22.74;99998.00;10167141;29;20052;-79
2023/06/18 13:52:42;;;;;;;8.43;7.07;;;;;;;34.88;23.38;100000.44;10157789;29;20056;-78
2023/06/18 13:57:47;;;;;;;7.72;7.03;;;;;;;34.95;22.92;99995.34;10163236;29;20189;-79
2023/06/18 14:02:50;;;;;;;7.18;6.47;;;;;;;35.25;22.12;100004.50;10162335;29;20052;-77
2023/06/18 14:07:53;;;;;;;7.78;7.18;;;;;;;35.03;23.48;99999.47;10167697;29;20055;-77
2023/06/18 14:12:57;;;;;;;7.30;6.60;;;;;;;35.79;23.05;99980.00;10172002;29;20055;-80
2023/06/18 14:18:00;;;;;;;8.32;6.75;;;;;;;36.64;22.00;99990.06;10198306;29;20043;-77
2023/06/18 14:23:03;;;;;;;8.23;7.22;;;;;;;36.58;22.33;99982.91;10218567;29;20051;-76
2023/06/18 14:28:07;;;;;;;6.63;6.05;;;;;;;36.01;23.49;99971.84;10204610;29;20142;-80
2023/06/18 14:33:10;;;;;;;7.18;6.47;;;;;;;37.04;22.04;99966.06;10197388;29;20551;-80
2023/06/18 14:38:13;;;;;;;7.47;6.75;;;;;;;37.01;22.02;99971.47;10205661;29;20424;-77
2023/06/18 14:43:17;;;;;;;6.80;6.13;;;;;;;37.58;21.47;99962.69;10201768;29;20043;-77
2023/06/18 14:48:20;;;;;;;8.32;7.22;;;;;;;37.39;21.28;99965.63;10214685;29;20082;-78
2023/06/18 14:53:23;;;;;;;7.35;6.65;;;;;;;35.72;22.52;99961.69;10210271;29;20469;-77
2023/06/18 14:58:27;;;;;;;7.50;6.90;;;;;;;34.19;23.27;99964.28;10199398;29;20033;-78
2023/06/18 15:03:30;;;;;;;7.43;6.75;;;;;;;33.90;24.35;99955.88;10200890;29;20040;-78
2023/06/18 15:08:34;;;;;;;7.85;7.07;;;;;;;33.74;24.90;99957.13;10201208;29;20051;-81
2023/06/18 15:13:38;;;;;;;9.77;7.53;;;;;;;32.88;25.34;99950.81;10207427;29;20049;-78
2023/06/18 15:18:41;;;;;;;7.95;7.25;;;;;;;32.40;26.50;99948.44;10192377;29;20056;-78
2023/06/18 15:23:44;;;;;;;9.85;7.20;;;;;;;32.48;26.56;99954.53;10197753;29;20048;-76
2023/06/18 15:28:48;;;;;;;8.30;7.40;;;;;;;32.22;26.71;99951.78;10202256;29;20070;-77
2023/06/18 15:33:51;;;;;;;8.02;7.22;;;;;;;31.78;27.43;99955.09;10198960;29;20456;-78
2023/06/18 15:38:54;;;;;;;7.82;7.13;;;;;;;31.49;27.78;99952.78;10203033;29;20050;-74
2023/06/18 15:43:58;;;;;;;7.65;6.93;;;;;;;31.50;26.79;99948.91;10209021;29;20047;-76
2023/06/18 15:49:01;;;;;;;7.38;6.65;;;;;;;31.53;27.73;99947.53;10207225;29;20381;-79
2023/06/18 15:54:04;;;;;;;7.95;7.28;;;;;;;31.81;27.68;99948.97;10206449;29;20412;-78
2023/06/18 15:59:10;;;;;;;9.25;8.43;;;;;;;32.00;28.45;99941.75;10208692;29;20048;-77
2023/06/18 16:04:13;;;;;;;8.23;7.40;;;;;;;32.25;28.33;99940.09;10207419;29;20051;-77
2023/06/18 16:09:16;;;;;;;8.95;8.15;;;;;;;31.38;28.94;99922.50;10208250;29;20743;-78
2023/06/18 16:14:21;;;;;;;8.82;8.02;;;;;;;30.67;30.44;99923.91;10206960;29;20039;-78
2023/06/18 16:19:24;;;;;;;11.63;8.10;;;;;;;30.25;30.52;99933.88;10207802;29;20588;-78
2023/06/18 16:24:26;;;;;;;9.95;8.73;;;;;;;30.04;31.25;99924.53;10207356;29;20119;-77
2023/06/18 16:29:32;;;;;;;10.38;8.52;;;;;;;29.91;31.17;99932.44;10209959;29;20052;-78
2023/06/18 16:34:35;;;;;;;7.90;7.18;;;;;;;29.76;31.60;99924.84;10199814;29;20036;-78
2023/06/18 16:39:38;;;;;;;9.02;8.13;;;;;;;29.53;31.50;99920.44;10199188;29;20052;-78
2023/06/18 16:44:42;;;;;;;9.10;7.85;;;;;;;29.19;31.61;99926.16;10200189;29;20045;-76
2023/06/18 16:49:45;;;;;;;8.75;7.93;;;;;;;29.04;33.29;99931.47;10187118;29;20044;-77
2023/06/18 16:54:48;;;;;;;8.55;7.75;;;;;;;28.78;33.07;99919.28;10186197;29;20052;-77
2023/06/18 16:59:53;;;;;;;9.02;8.18;;;;;;;28.45;33.19;99924.59;10193389;29;20083;-76
2023/06/18 17:04:56;;;;;;;8.88;8.07;;;;;;;28.39;33.72;99920.09;10195971;29;20047;-78
2023/06/18 17:09:59;;;;;;;9.18;8.23;;;;;;;28.30;33.57;99924.34;10197548;29;20040;-77
2023/06/18 17:15:04;;;;;;;10.00;7.57;;;;;;;28.37;33.33;99933.31;10201183;29;20032;-78
2023/06/18 17:20:09;;;;;;;9.38;8.45;;;;;;;28.58;33.26;99920.69;10199298;29;20054;-76
2023/06/18 17:25:12;;;;;;;9.43;7.63;;;;;;;28.73;33.42;99935.78;10186381;29;20040;-74
2023/06/18 17:30:16;;;;;;;8.18;7.38;;;;;;;28.78;33.94;99931.16;10185270;29;20047;-74
2023/06/18 17:35:19;;;;;;;11.82;7.75;;;;;;;28.89;33.72;99921.91;10182952;29;20114;-73
2023/06/18 17:40:22;;;;;;;6.93;6.32;;;;;;;28.53;33.70;99925.28;10190248;29;20040;-73
2023/06/18 17:45:28;;;;;;;9.43;8.07;;;;;;;28.21;33.86;99926.72;10192594;29;20059;-74
2023/06/18 17:50:31;;;;;;;8.10;7.30;;;;;;;28.21;34.36;99926.72;10199354;29;20043;-74
2023/06/18 17:55:34;;;;;;;8.45;7.55;;;;;;;28.17;34.24;99920.03;10194511;29;20055;-73
2023/06/18 18:00:38;;;;;;;8.35;7.55;;;;;;;28.20;34.00;99918.69;10191444;29;20040;-74
2023/06/18 18:05:43;;;;;;;8.80;7.03;;;;;;;28.16;33.85;99920.28;10190841;29;20036;-74
2023/06/18 18:10:46;;;;;;;9.13;7.70;;;;;;;28.03;34.09;99925.06;10193218;29;20051;-74
2023/06/18 18:15:50;;;;;;;8.32;7.20;;;;;;;28.01;34.36;99923.63;10191519;29;20489;-73
2023/06/18 18:20:53;;;;;;;10.80;8.07;;;;;;;27.71;34.28;99916.47;10194467;29;20098;-73
2023/06/18 18:25:56;;;;;;;7.82;7.13;;;;;;;27.55;35.10;99912.59;10209942;29;20032;-73
2023/06/18 18:31:14;;;;;;;10.55;7.97;;;;;;;27.40;35.27;99915.09;10201403;29;20181;-73
2023/06/18 18:36:17;;;;;;;9.15;7.45;;;;;;;27.23;35.40;99901.22;10190242;29;20512;-73
2023/06/18 18:41:19;;;;;;;11.07;7.90;;;;;;;27.06;35.79;99903.94;10182658;29;20116;-73
2023/06/18 18:46:24;;;;;;;8.63;7.72;;;;;;;26.95;35.89;99889.09;10187420;29;20781;-76
2023/06/18 18:51:26;;;;;;;7.85;7.05;;;;;;;26.84;36.27;99883.63;10190306;29;20051;-75
2023/06/18 18:56:29;;;;;;;10.05;8.02;;;;;;;26.70;36.48;99880.28;10192118;29;20050;-74
2023/06/18 19:01:34;;;;;;;8.68;7.00;;;;;;;26.55;36.82;99880.81;10189514;29;20107;-74
2023/06/18 19:06:37;;;;;;;8.30;7.50;;;;;;;26.46;37.12;99885.81;10188292;29;20044;-74
2023/06/18 19:11:39;;;;;;;8.88;7.90;;;;;;;26.34;37.67;99898.78;10177353;29;20504;-73
2023/06/18 19:16:45;;;;;;;8.25;7.47;;;;;;;26.13;37.95;99891.91;10176980;29;20060;-74
2023/06/18 19:21:48;;;;;;;8.57;7.78;;;;;;;26.02;38.09;99896.34;10195903;29;20070;-74
2023/06/18 19:26:51;;;;;;;8.60;7.53;;;;;;;25.88;38.43;99903.16;10199571;29;20046;-73
2023/06/18 19:31:55;;;;;;;8.65;7.75;;;;;;;25.80;38.77;99907.06;10200316;29;20063;-74
2023/06/18 19:36:58;;;;;;;9.80;7.85;;;;;;;25.66;39.02;99910.28;10199116;29;20047;-72
2023/06/18 19:42:01;;;;;;;8.95;8.05;;;;;;;25.56;39.24;99921.81;10191764;29;20416;-74
2023/06/18 19:47:06;;;;;;;9.30;7.88;;;;;;;25.49;39.41;99912.84;10190933;29;20048;-74
2023/06/18 19:52:09;;;;;;;10.13;8.02;;;;;;;25.37;39.64;99921.88;10202151;29;20047;-73
2023/06/18 19:57:11;;;;;;;8.38;7.57;;;;;;;25.31;39.40;99925.53;10199972;29;20072;-73
2023/06/18 20:02:15;;;;;;;8.82;7.85;;;;;;;25.25;39.20;99911.91;10206293;29;20099;-72
2023/06/18 20:07:18;;;;;;;10.07;7.72;;;;;;;25.21;39.24;99916.22;10203545;29;20491;-72
2023/06/18 20:12:21;;;;;;;10.38;7.75;;;;;;;25.12;38.82;99922.03;10202258;29;20051;-73
2023/06/18 20:17:26;;;;;;;8.77;7.88;;;;;;;25.08;38.98;99922.72;10195896;29;20040;-71
2023/06/18 20:22:29;;;;;;;7.78;6.97;;;;;;;24.98;38.92;99920.47;10192623;29;20043;-73
2023/06/18 20:27:32;;;;;;;11.05;8.43;;;;;;;24.93;39.41;99918.44;10192155;29;20042;-76
2023/06/18 20:32:36;;;;;;;10.05;7.97;;;;;;;24.91;39.39;99915.06;10201021;29;20040;-76
2023/06/18 20:37:39;;;;;;;10.32;7.72;;;;;;;24.81;39.57;99917.50;10201993;29;20514;-75
2023/06/18 20:42:42;;;;;;;12.57;8.90;;;;;;;24.82;39.80;99918.34;10205171;29;20134;-76
2023/06/18 20:47:46;;;;;;;9.70;8.52;;;;;;;24.73;40.12;99906.81;10207133;29;20603;-75
2023/06/18 20:52:49;;;;;;;9.50;8.60;;;;;;;24.67;40.15;99913.25;10200002;29;20048;-76
2023/06/18 20:57:54;;;;;;;9.13;8.18;;;;;;;24.68;40.18;99912.16;10194428;29;20044;-75
2023/06/18 21:02:58;;;;;;;8.23;7.43;;;;;;;24.62;40.23;99911.16;10198316;29;20051;-76
2023/06/18 21:08:01;;;;;;;9.18;8.27;;;;;;;24.54;40.60;99906.81;10203022;29;20048;-76
2023/06/18 21:13:04;;;;;;;9.48;7.82;;;;;;;24.52;40.77;99913.63;10199158;29;20055;-77
2023/06/18 21:18:08;;;;;;;8.55;7.72;;;;;;;24.48;40.52;99910.47;10200599;29;20523;-76
2023/06/18 21:23:12;;;;;;;8.55;7.57;;;;;;;24.47;40.75;99900.56;10197115;29;20488;-76
2023/06/18 21:28:18;;;;;;;8.55;7.50;;;;;;;24.53;40.74;99905.16;10196171;29;20473;-77
2023/06/18 21:33:23;;;;;;;8.32;7.53;;;;;;;24.48;40.62;99902.25;10198239;29;20531;-76
2023/06/18 21:38:26;;;;;;;9.32;7.47;;;;;;;24.43;40.71;99893.84;10196132;29;20120;-76
2023/06/18 21:43:29;;;;;;;8.90;8.00;;;;;;;24.41;40.68;99898.75;10194152;29;20055;-77
2023/06/18 21:48:33;;;;;;;7.50;6.68;;;;;;;24.36;41.02;99895.81;10198108;29;20159;-74
2023/06/18 21:53:36;;;;;;;8.10;7.15;;;;;;;24.32;40.60;99891.81;10195026;29;20052;-75
2023/06/18 21:58:39;;;;;;;8.25;7.40;;;;;;;24.14;40.75;99881.69;10200440;29;20044;-76
2023/06/18 22:03:43;;;;;;;8.27;7.50;;;;;;;24.07;41.18;99872.66;10190533;29;20044;-76
2023/06/18 22:08:48;;;;;;;8.95;7.65;;;;;;;23.99;41.11;99870.19;10180365;29;20043;-76
2023/06/18 22:13:51;;;;;;;8.88;7.40;;;;;;;23.93;41.10;99885.66;10190172;29;20130;-76
2023/06/18 22:18:59;;;;;;;7.50;6.80;;;;;;;23.85;41.58;99878.53;10194946;29;20428;-76
2023/06/18 22:24:02;;;;;;;9.63;7.65;;;;;;;23.77;41.96;99873.34;10195478;29;20056;-76
2023/06/18 22:29:05;;;;;;;7.72;6.57;;;;;;;23.67;41.93;99864.78;10190218;29;20036;-74
2023/06/18 22:34:09;;;;;;;8.48;7.57;;;;;;;23.66;42.00;99861.16;10188240;29;20130;-76
2023/06/18 22:39:12;;;;;;;8.27;6.65;;;;;;;23.58;41.90;99857.84;10196478;29;20499;-76
2023/06/18 22:44:15;;;;;;;8.15;7.00;;;;;;;23.54;42.31;99846.50;10199685;29;20479;-74
2023/06/18 22:49:19;;;;;;;7.53;6.82;;;;;;;23.56;42.26;99852.63;10190355;29;20055;-75
2023/06/18 22:54:23;;;;;;;8.77;7.40;;;;;;;23.45;42.33;99853.34;10191742;29;20059;-75
2023/06/18 22:59:26;;;;;;;7.70;7.00;;;;;;;23.41;42.32;99852.09;10193911;29;20063;-76
2023/06/18 23:04:30;;;;;;;7.85;7.05;;;;;;;23.45;41.87;99847.84;10202870;29;20051;-76
2023/06/18 23:09:33;;;;;;;12.57;7.35;;;;;;;23.50;42.35;99844.44;10189916;29;20044;-76
2023/06/18 23:14:36;;;;;;;7.97;7.05;;;;;;;23.44;42.08;99836.03;10179216;29;20056;-76